Cloudcroft, New Mexico
Current Conditions -  °F | °C
As of 3:58 PM on Wednesday 22 Oct 2014 (Local Time) from KHMN Reporting Station
Clear Clear  
Wind Chill: 73°   Ceiling: Unl
Heat Index: 73°   Visibility: 10mi
Dew Point: 52°   Wind: 3mph
Humidity: 48%   Direction: 120°ESE
Pressure: 30.08"   Gusts: NA
Location:  32.96°N, 105.74°W
Report Text: KHMN 222158Z AUTO 12003KT 10SM CLR 23/11 A3008 RMK AO2 SLP137 T02260111 $
Loading
Personal Weather Stations






























Interactive Weather Map New forecast layout! Learn more

10-Day Weather Forecast

Advertisements
Track Severe Weather on mobile